GSICA EGPB-EGPB

Flight info

Callsign GSICA
Flight time N/A
Altitude 4000
Route EGEF
Aircraft BN2P/L-SFG/C

Departure

Time 2026-05-06 22:08
Airport Sumburgh Airport (EGPB)

Arrival

Time N/A
Airport Sumburgh Airport (EGPB)
Time Latitude Longitude Altitude Speed Heading
2026-05-06 21:58 59.87715 -1.28704 27 ft 0 kts 124°
2026-05-06 22:04 59.87708 -1.28684 40 ft 6 kts 123°
2026-05-06 22:05 59.87700 -1.28680 40 ft 3 kts 194°
2026-05-06 22:05 59.87677 -1.28731 40 ft 7 kts 233°
2026-05-06 22:05 59.87639 -1.28835 40 ft 12 kts 234°
2026-05-06 22:05 59.87607 -1.28944 40 ft 3 kts 262°
2026-05-06 22:06 59.87624 -1.28994 40 ft 7 kts 321°
2026-05-06 22:06 59.87643 -1.29021 40 ft 0 kts 353°
2026-05-06 22:06 59.87643 -1.29014 40 ft 2 kts 145°
2026-05-06 22:06 59.87604 -1.29033 40 ft 7 kts 231°
2026-05-06 22:07 59.87591 -1.29160 39 ft 12 kts 302°
2026-05-06 22:07 59.87800 -1.29475 43 ft 69 kts 324°
2026-05-06 22:07 59.88119 -1.29914 164 ft 81 kts 325°
2026-05-06 22:07 59.88369 -1.30213 320 ft 83 kts 328°
2026-05-06 22:08 59.88759 -1.30624 430 ft 99 kts 331°
2026-05-06 22:08 59.89342 -1.31562 742 ft 103 kts 295°
2026-05-06 22:08 59.89409 -1.33091 979 ft 116 kts 253°
2026-05-06 22:08 59.89083 -1.34057 1169 ft 119 kts 224°
2026-05-06 22:09 59.88301 -1.34512 1493 ft 122 kts 180°
2026-05-06 22:09 59.87491 -1.33820 1723 ft 133 kts 145°
2026-05-06 22:09 59.86626 -1.32962 1990 ft 131 kts 168°
2026-05-06 22:09 59.85658 -1.32451 2025 ft 144 kts 172°
2026-05-06 22:10 59.84592 -1.32479 2021 ft 146 kts 203°
2026-05-06 22:10 59.83642 -1.33408 2022 ft 150 kts 210°
2026-05-06 22:10 59.82657 -1.34370 2012 ft 153 kts 209°
2026-05-06 22:10 59.82034 -1.34976 2014 ft 154 kts 210°
2026-05-06 22:11 59.80998 -1.36000 2009 ft 157 kts 210°
2026-05-06 22:11 59.80057 -1.36928 2004 ft 150 kts 210°
2026-05-06 22:11 59.79129 -1.37831 2000 ft 136 kts 210°
2026-05-06 22:11 59.78270 -1.38672 1999 ft 129 kts 210°
2026-05-06 22:12 59.77427 -1.39506 2002 ft 126 kts 210°
2026-05-06 22:12 59.76614 -1.40309 2007 ft 124 kts 210°
2026-05-06 22:12 59.75830 -1.41079 2031 ft 124 kts 210°
2026-05-06 22:12 59.75043 -1.41852 2021 ft 125 kts 210°
2026-05-06 22:13 59.74238 -1.42642 1923 ft 130 kts 210°
2026-05-06 22:13 59.73396 -1.43471 1800 ft 133 kts 210°
2026-05-06 22:13 59.72559 -1.44290 1674 ft 135 kts 210°
2026-05-06 22:13 59.71992 -1.44845 1587 ft 135 kts 210°
2026-05-06 22:14 59.71133 -1.45686 1524 ft 132 kts 210°
2026-05-06 22:14 59.70309 -1.46489 1518 ft 128 kts 209°
2026-05-06 22:14 59.69509 -1.47270 1519 ft 125 kts 209°
2026-05-06 22:14 59.68735 -1.48026 1516 ft 123 kts 210°
2026-05-06 22:15 59.67959 -1.48795 1508 ft 123 kts 211°
2026-05-06 22:15 59.67191 -1.49598 1484 ft 124 kts 212°
2026-05-06 22:15 59.66451 -1.50468 1453 ft 127 kts 214°
2026-05-06 22:15 59.65658 -1.51419 1306 ft 135 kts 214°
2026-05-06 22:16 59.64812 -1.52392 1226 ft 139 kts 214°
2026-05-06 22:16 59.63982 -1.53383 1168 ft 141 kts 214°
2026-05-06 22:16 59.63153 -1.54429 1116 ft 143 kts 215°
2026-05-06 22:16 59.62305 -1.55418 1162 ft 138 kts 212°
2026-05-06 22:17 59.61438 -1.56344 1168 ft 139 kts 211°
2026-05-06 22:17 59.60571 -1.57286 1173 ft 145 kts 211°
2026-05-06 22:17 59.59670 -1.58264 1175 ft 147 kts 212°
2026-05-06 22:17 59.58770 -1.59235 1165 ft 148 kts 212°
2026-05-06 22:18 59.58151 -1.59919 1170 ft 148 kts 212°
2026-05-06 22:18 59.57244 -1.60916 1172 ft 150 kts 211°
2026-05-06 22:18 59.56309 -1.61965 1169 ft 149 kts 212°
2026-05-06 22:18 59.55487 -1.63129 1154 ft 141 kts 223°
2026-05-06 22:19 59.54959 -1.64029 1193 ft 129 kts 222°
2026-05-06 22:19 59.54331 -1.65058 1141 ft 104 kts 222°
2026-05-06 22:19 59.53802 -1.65905 993 ft 92 kts 211°
2026-05-06 22:19 59.53194 -1.65801 850 ft 92 kts 152°
2026-05-06 22:20 59.52954 -1.64660 543 ft 99 kts 78°
2026-05-06 22:20 59.53188 -1.63777 345 ft 89 kts 63°
2026-05-06 22:20 59.53487 -1.62769 219 ft 57 kts 68°
2026-05-06 22:20 59.53537 -1.62581 216 ft 0 kts 30°
2026-05-06 22:21 59.53545 -1.62577 212 ft 3 kts 354°
2026-05-06 22:21 59.53550 -1.62601 218 ft 5 kts 250°
2026-05-06 22:21 59.53498 -1.62726 218 ft 17 kts 233°
2026-05-06 22:22 59.53434 -1.62899 223 ft 2 kts 196°
2026-05-06 22:22 59.53423 -1.62895 219 ft 0 kts 164°
2026-05-06 22:26 59.53422 -1.62896 218 ft 0 kts 203°
2026-05-06 22:27 59.53420 -1.62900 218 ft 1 kts 242°
2026-05-06 22:27 59.53417 -1.62914 222 ft 3 kts 249°
2026-05-06 22:27 59.53402 -1.62995 216 ft 10 kts 245°
2026-05-06 22:27 59.53370 -1.63122 219 ft 8 kts 232°
2026-05-06 22:28 59.53351 -1.63169 222 ft 1 kts 233°
2026-05-06 22:28 59.53346 -1.63204 222 ft 2 kts 292°
2026-05-06 22:28 59.53360 -1.63202 221 ft 0 kts 58°
2026-05-06 22:29 59.53414 -1.63032 216 ft 31 kts 54°
2026-05-06 22:29 59.53529 -1.62731 213 ft 6 kts 43°
2026-05-06 22:29 59.53530 -1.62727 213 ft 0 kts 73°
2026-05-06 22:29 59.53530 -1.62725 213 ft 0 kts 121°
2026-05-06 22:30 59.53528 -1.62724 213 ft 1 kts 184°
2026-05-06 22:30 59.53525 -1.62727 213 ft 0 kts 207°
2026-05-06 22:32 59.53473 -1.62821 218 ft 21 kts 227°
2026-05-06 22:33 59.53426 -1.62894 218 ft 0 kts 190°